createdAt,value
2019-03-23T00:01:03.643Z,21.17
2019-03-23T00:03:32.218Z,19.60
2019-03-23T00:06:00.775Z,22.05
2019-03-23T00:08:29.348Z,19.65
2019-03-23T00:10:57.905Z,17.40
2019-03-23T00:13:26.481Z,18.80
2019-03-23T00:15:55.041Z,20.00
2019-03-23T00:18:23.613Z,17.77
2019-03-23T00:20:52.178Z,19.40
2019-03-23T00:23:20.752Z,18.10
2019-03-23T00:25:49.321Z,19.42
2019-03-23T00:28:17.898Z,19.87
2019-03-23T00:30:46.469Z,20.32
2019-03-23T00:33:15.048Z,18.07
2019-03-23T00:35:43.610Z,18.60
2019-03-23T00:38:12.185Z,21.07
2019-03-23T00:40:40.740Z,20.70
2019-03-23T00:43:09.330Z,19.65
2019-03-23T00:45:37.882Z,19.27
2019-03-23T00:48:06.467Z,19.42
2019-03-23T00:50:35.021Z,19.02
2019-03-23T00:53:03.605Z,21.05
2019-03-23T00:55:32.165Z,17.92
2019-03-23T00:58:00.721Z,18.02
2019-03-23T01:00:29.308Z,18.00
2019-03-23T01:02:57.861Z,18.73
2019-03-23T01:05:26.440Z,20.55
2019-03-23T01:07:54.996Z,18.57
2019-03-23T01:10:23.580Z,18.17
2019-03-23T01:12:52.142Z,18.17
2019-03-23T01:15:20.721Z,18.95
2019-03-23T01:17:49.278Z,18.07
2019-03-23T01:20:17.862Z,18.32
2019-03-23T01:22:46.426Z,18.92
2019-03-23T01:25:14.996Z,21.57
2019-03-23T01:27:43.553Z,17.92
2019-03-23T01:30:14.549Z,19.35
2019-03-23T01:32:43.101Z,17.90
2019-03-23T01:35:12.231Z,18.60
2019-03-23T01:37:40.782Z,19.00
2019-03-23T01:40:09.896Z,17.57
2019-03-23T01:42:38.462Z,16.52
2019-03-23T01:45:11.981Z,16.32
2019-03-23T01:47:40.546Z,16.75
2019-03-23T01:50:11.166Z,18.07
2019-03-23T01:52:39.795Z,19.37
2019-03-23T01:55:08.841Z,16.50
2019-03-23T01:57:37.402Z,15.55
2019-03-23T02:00:11.066Z,15.90
2019-03-23T02:02:39.621Z,16.67
2019-03-23T02:05:08.746Z,15.85
2019-03-23T02:07:37.310Z,18.17
2019-03-23T02:10:07.121Z,17.62
2019-03-23T02:12:35.755Z,15.83
2019-03-23T02:15:07.046Z,18.48
2019-03-23T02:17:35.606Z,15.72
2019-03-23T02:20:07.293Z,16.52
2019-03-23T02:22:36.033Z,17.60
2019-03-23T02:25:06.453Z,14.28
2019-03-23T02:27:35.013Z,17.05
2019-03-23T02:30:03.739Z,17.32
2019-03-23T02:32:32.294Z,17.25
2019-03-23T02:35:00.874Z,16.93
2019-03-23T02:37:29.433Z,16.20
2019-03-23T02:39:58.014Z,16.35
2019-03-23T02:42:26.566Z,15.68
2019-03-23T02:44:55.152Z,17.27
2019-03-23T02:47:23.706Z,16.35
2019-03-23T02:49:52.290Z,16.00
2019-03-23T02:52:20.851Z,16.02
2019-03-23T02:54:49.430Z,16.55
2019-03-23T02:57:17.983Z,16.35
2019-03-23T02:59:46.578Z,14.75
2019-03-23T03:02:15.140Z,16.20
2019-03-23T03:04:43.690Z,15.25
2019-03-23T03:07:12.278Z,13.35
2019-03-23T03:09:40.841Z,15.05
2019-03-23T03:12:09.409Z,13.45
2019-03-23T03:14:37.978Z,15.05
2019-03-23T03:17:06.553Z,15.03
2019-03-23T03:19:35.118Z,14.40
2019-03-23T03:22:03.970Z,14.03
2019-03-23T03:24:32.534Z,15.50
2019-03-23T03:27:01.106Z,15.50
2019-03-23T03:29:29.670Z,14.10
2019-03-23T03:31:58.256Z,15.10
2019-03-23T03:34:26.808Z,15.32
2019-03-23T03:36:55.387Z,14.83
2019-03-23T03:39:23.956Z,14.63
2019-03-23T03:41:52.539Z,15.15
2019-03-23T03:44:21.102Z,18.85
2019-03-23T03:46:49.678Z,16.87
2019-03-23T03:49:18.233Z,15.50
2019-03-23T03:51:46.901Z,15.55
2019-03-23T03:54:15.478Z,16.73
2019-03-23T03:56:44.063Z,17.73
2019-03-23T03:59:12.618Z,17.87
2019-03-23T04:01:41.216Z,14.43
2019-03-23T04:04:09.759Z,15.28
2019-03-23T04:06:38.336Z,14.18
2019-03-23T04:09:07.267Z,14.78
2019-03-23T04:11:35.820Z,13.22
2019-03-23T04:14:04.385Z,14.85
2019-03-23T04:16:32.950Z,15.25
2019-03-23T04:19:01.525Z,14.83
2019-03-23T04:21:30.091Z,13.38
2019-03-23T04:23:58.654Z,12.75
2019-03-23T04:26:27.239Z,13.10
2019-03-23T04:28:55.799Z,13.32
2019-03-23T04:31:24.374Z,12.60
2019-03-23T04:33:52.943Z,13.05
2019-03-23T04:36:21.518Z,13.18
2019-03-23T04:38:50.081Z,13.05
2019-03-23T04:41:18.663Z,12.95
2019-03-23T04:43:47.217Z,13.30
2019-03-23T04:46:15.793Z,12.13
2019-03-23T04:48:44.358Z,13.20
2019-03-23T04:51:12.941Z,13.53
2019-03-23T04:53:41.509Z,11.40
2019-03-23T04:56:10.090Z,12.47
2019-03-23T04:58:38.641Z,11.45
2019-03-23T05:01:07.225Z,12.80
2019-03-23T05:03:35.789Z,13.28
2019-03-23T05:06:04.433Z,11.53
2019-03-23T05:08:33.818Z,13.10
2019-03-23T05:11:02.578Z,10.75
2019-03-23T05:13:31.138Z,11.43
2019-03-23T05:15:59.784Z,13.60
2019-03-23T05:18:28.337Z,12.03
2019-03-23T05:20:56.921Z,15.32
2019-03-23T05:23:25.473Z,11.65
2019-03-23T05:25:54.061Z,13.13
2019-03-23T05:28:22.617Z,14.83
2019-03-23T05:30:51.197Z,14.70
2019-03-23T05:33:19.754Z,15.23
2019-03-23T05:35:48.313Z,14.43
2019-03-23T05:38:16.889Z,14.98
2019-03-23T05:40:45.455Z,14.70
2019-03-23T05:43:14.046Z,15.70
2019-03-23T05:45:42.617Z,15.10
2019-03-23T05:48:11.202Z,14.45
2019-03-23T05:50:39.757Z,16.52
2019-03-23T05:53:08.343Z,15.48
2019-03-23T05:55:36.898Z,13.00
2019-03-23T05:58:05.473Z,12.58
2019-03-23T06:00:34.038Z,16.25
2019-03-23T06:03:02.624Z,15.28
2019-03-23T06:05:31.176Z,17.20
2019-03-23T06:07:59.757Z,15.43
2019-03-23T06:10:28.317Z,14.07
2019-03-23T06:12:56.903Z,13.38
2019-03-23T06:15:25.457Z,14.68
2019-03-23T06:17:54.045Z,14.93
2019-03-23T06:20:22.606Z,11.73
2019-03-23T06:22:51.185Z,15.60
2019-03-23T06:25:19.746Z,17.17
2019-03-23T06:27:48.327Z,16.87
2019-03-23T06:30:16.954Z,17.85
2019-03-23T06:32:45.537Z,16.15
2019-03-23T06:35:14.104Z,16.82
2019-03-23T06:37:42.686Z,16.70
2019-03-23T06:40:11.978Z,16.73
2019-03-23T06:42:40.568Z,16.95
2019-03-23T06:45:10.470Z,15.30
2019-03-23T06:47:39.119Z,17.57
2019-03-23T06:50:09.588Z,16.07
2019-03-23T06:52:38.178Z,16.45
2019-03-23T06:55:08.883Z,15.88
2019-03-23T06:57:37.481Z,17.73
2019-03-23T07:00:09.282Z,16.12
2019-03-23T07:02:37.924Z,14.95
2019-03-23T07:05:08.729Z,15.13
2019-03-23T07:07:37.317Z,11.70
2019-03-23T07:10:10.982Z,11.60
2019-03-23T07:12:39.566Z,11.93
2019-03-23T07:15:20.099Z,11.10
2019-03-23T07:17:42.663Z,9.68
2019-03-23T07:20:15.530Z,7.50
2019-03-23T07:22:44.773Z,8.18
2019-03-23T07:25:13.334Z,7.65
2019-03-23T07:27:41.979Z,8.38
2019-03-23T07:30:15.187Z,7.67
2019-03-23T07:32:43.833Z,7.00
2019-03-23T07:35:12.834Z,6.80
2019-03-23T07:37:41.410Z,6.33
2019-03-23T07:40:12.218Z,7.70
2019-03-23T07:42:40.964Z,5.92
2019-03-23T07:45:11.253Z,6.83
2019-03-23T07:47:39.838Z,6.90
2019-03-23T07:50:11.052Z,5.33
2019-03-23T07:52:39.628Z,6.87
2019-03-23T07:55:16.030Z,6.85
2019-03-23T07:57:45.155Z,5.72
2019-03-23T08:00:19.041Z,7.05
2019-03-23T08:02:47.730Z,7.42
2019-03-23T08:05:16.294Z,5.33
2019-03-23T08:07:45.001Z,7.40
2019-03-23T08:10:27.866Z,7.20
2019-03-23T08:12:57.991Z,5.83
2019-03-23T08:15:26.695Z,7.60
2019-03-23T08:17:55.726Z,7.65
2019-03-23T08:20:24.955Z,8.38
2019-03-23T08:22:54.454Z,7.33
2019-03-23T08:25:23.042Z,7.97
2019-03-23T08:27:51.606Z,6.97
2019-03-23T08:30:20.181Z,7.47
2019-03-23T08:32:48.755Z,8.53
2019-03-23T08:35:17.341Z,9.05
2019-03-23T08:37:45.913Z,8.13
2019-03-23T08:40:14.498Z,6.60
2019-03-23T08:42:44.933Z,8.35
2019-03-23T08:45:13.575Z,7.65
2019-03-23T08:47:42.157Z,7.90
2019-03-23T08:50:11.086Z,8.73
2019-03-23T08:52:39.626Z,7.83
2019-03-23T08:55:08.448Z,6.62
2019-03-23T08:57:37.015Z,7.80
2019-03-23T09:00:09.087Z,5.42
2019-03-23T09:02:37.645Z,8.63
2019-03-23T09:05:07.182Z,5.70
2019-03-23T09:07:35.737Z,7.53
2019-03-23T09:10:06.563Z,5.42
2019-03-23T09:12:35.197Z,4.30
2019-03-23T09:15:06.318Z,7.72
2019-03-23T09:17:34.881Z,6.47
2019-03-23T09:20:05.477Z,6.25
2019-03-23T09:22:34.040Z,5.60
2019-03-23T09:25:02.629Z,8.85
2019-03-23T09:27:31.196Z,7.20
2019-03-23T09:29:59.781Z,8.25
2019-03-23T09:32:28.369Z,7.83
2019-03-23T09:34:56.954Z,8.50
2019-03-23T09:37:25.539Z,7.80
2019-03-23T09:39:54.127Z,7.60
2019-03-23T09:42:22.822Z,6.00
2019-03-23T09:44:52.791Z,8.63
2019-03-23T09:47:21.344Z,7.40
2019-03-23T09:49:49.934Z,8.07
2019-03-23T09:52:18.517Z,8.53
2019-03-23T09:54:48.415Z,7.53
2019-03-23T09:57:16.970Z,8.30
2019-03-23T09:59:45.571Z,8.77
2019-03-23T10:02:14.142Z,7.27
2019-03-23T10:04:42.697Z,6.53
2019-03-23T10:07:11.294Z,6.62
2019-03-23T10:09:39.858Z,6.97
2019-03-23T10:12:08.440Z,6.50
2019-03-23T10:14:37.010Z,6.67
2019-03-23T10:17:05.628Z,8.55
2019-03-23T10:19:34.199Z,10.63
2019-03-23T10:22:02.786Z,8.47
2019-03-23T10:24:31.350Z,6.87
2019-03-23T10:26:59.938Z,6.80
2019-03-23T10:29:28.496Z,7.97
2019-03-23T10:31:57.077Z,7.70
2019-03-23T10:34:25.654Z,10.37
2019-03-23T10:36:54.525Z,8.60
2019-03-23T10:39:23.095Z,8.93
2019-03-23T10:41:51.689Z,8.93
2019-03-23T10:44:20.248Z,8.20
2019-03-23T10:46:48.841Z,8.87
2019-03-23T10:49:17.393Z,8.50
2019-03-23T10:51:45.989Z,6.30
2019-03-23T10:54:14.554Z,8.80
2019-03-23T10:56:43.137Z,6.17
2019-03-23T10:59:11.688Z,8.70
2019-03-23T11:01:40.285Z,8.20
2019-03-23T11:04:08.854Z,6.43
2019-03-23T11:06:37.454Z,9.40
2019-03-23T11:09:07.062Z,7.28
2019-03-23T11:11:35.649Z,8.45
2019-03-23T11:14:04.292Z,5.70
2019-03-23T11:16:32.876Z,7.93
2019-03-23T11:19:01.444Z,9.53
2019-03-23T11:21:30.906Z,7.83
2019-03-23T11:23:59.473Z,10.90
2019-03-23T11:26:28.233Z,8.50
2019-03-23T11:28:56.841Z,9.67
2019-03-23T11:31:25.394Z,8.60
2019-03-23T11:33:53.990Z,11.87
2019-03-23T11:36:22.549Z,10.83
2019-03-23T11:38:51.142Z,14.47
2019-03-23T11:41:19.700Z,11.97
2019-03-23T11:43:48.282Z,9.60
2019-03-23T11:46:17.098Z,10.00
2019-03-23T11:48:45.746Z,8.67
2019-03-23T11:51:14.307Z,9.20
2019-03-23T11:53:42.890Z,9.10
2019-03-23T11:56:11.471Z,9.30
2019-03-23T11:58:40.054Z,6.90
2019-03-23T12:01:08.615Z,10.53
2019-03-23T12:03:37.226Z,9.20
2019-03-23T12:06:05.790Z,9.20
2019-03-23T12:08:34.369Z,9.80
2019-03-23T12:11:03.373Z,9.90
2019-03-23T12:13:32.038Z,7.07
2019-03-23T12:16:00.601Z,10.73
2019-03-23T12:18:29.188Z,10.07
2019-03-23T12:20:57.754Z,9.67
2019-03-23T12:23:26.337Z,9.30
2019-03-23T12:25:54.893Z,8.90
2019-03-23T12:28:23.480Z,10.00
2019-03-23T12:30:52.045Z,9.70
2019-03-23T12:33:21.542Z,8.63
2019-03-23T12:35:50.258Z,9.90
2019-03-23T12:38:18.836Z,7.90
2019-03-23T12:40:47.397Z,8.47
2019-03-23T12:43:15.976Z,9.43
2019-03-23T12:45:44.540Z,8.67
2019-03-23T12:48:16.509Z,9.03
2019-03-23T12:50:45.078Z,8.90
2019-03-23T12:53:13.658Z,9.10
2019-03-23T12:55:42.218Z,8.47
2019-03-23T12:58:10.816Z,9.40
2019-03-23T13:00:39.374Z,7.30
2019-03-23T13:03:07.944Z,7.53
2019-03-23T13:05:36.533Z,10.20
2019-03-23T13:08:05.096Z,9.30
2019-03-23T13:10:33.690Z,9.30
2019-03-23T13:13:02.263Z,8.93
2019-03-23T13:15:30.854Z,9.50
2019-03-23T13:17:59.429Z,8.30
2019-03-23T13:20:28.099Z,8.43
2019-03-23T13:22:56.693Z,6.50
2019-03-23T13:25:25.289Z,7.00
2019-03-23T13:27:53.845Z,9.17
2019-03-23T13:30:22.437Z,10.17
2019-03-23T13:32:50.997Z,9.30
2019-03-23T13:35:19.581Z,9.60
2019-03-23T13:37:48.150Z,11.10
2019-03-23T13:40:16.906Z,11.53
2019-03-23T13:42:45.479Z,10.77
2019-03-23T13:45:14.193Z,9.50
2019-03-23T13:47:42.770Z,10.50
2019-03-23T13:50:11.994Z,11.10
2019-03-23T13:52:40.562Z,10.73
2019-03-23T13:55:13.102Z,9.53
2019-03-23T13:57:41.693Z,9.77
2019-03-23T14:00:10.448Z,8.73
2019-03-23T14:02:39.018Z,9.87
2019-03-23T14:05:15.729Z,10.80
2019-03-23T14:07:37.962Z,10.63
2019-03-23T14:10:09.406Z,11.30
2019-03-23T14:12:37.965Z,9.90
2019-03-23T14:15:07.294Z,11.53
2019-03-23T14:17:35.866Z,10.70
2019-03-23T14:20:07.098Z,10.47
2019-03-23T14:22:35.674Z,11.03
2019-03-23T14:25:06.608Z,10.03
2019-03-23T14:27:35.160Z,12.03
2019-03-23T14:30:06.155Z,11.53
2019-03-23T14:32:34.717Z,10.27
2019-03-23T14:35:03.764Z,11.57
2019-03-23T14:37:32.333Z,11.27
2019-03-23T14:40:00.921Z,12.37
2019-03-23T14:42:29.492Z,14.67
2019-03-23T14:44:58.094Z,15.07
2019-03-23T14:47:26.661Z,17.90
2019-03-23T14:49:55.221Z,20.20
2019-03-23T14:52:23.818Z,15.97
2019-03-23T14:54:52.388Z,18.87
2019-03-23T14:57:20.973Z,17.00
2019-03-23T14:59:49.533Z,17.80
2019-03-23T15:02:18.122Z,17.17
2019-03-23T15:04:46.690Z,17.70
2019-03-23T15:07:15.278Z,18.10
2019-03-23T15:09:43.842Z,16.13
2019-03-23T15:12:15.236Z,18.40
2019-03-23T15:14:42.645Z,18.30
2019-03-23T15:17:11.233Z,17.80
2019-03-23T15:19:39.797Z,17.07
2019-03-23T15:22:08.391Z,16.30
2019-03-23T15:24:36.958Z,17.27
2019-03-23T15:27:05.559Z,17.00
2019-03-23T15:29:34.126Z,17.40
2019-03-23T15:32:02.709Z,17.40
2019-03-23T15:34:31.291Z,17.20
2019-03-23T15:36:59.870Z,18.70
2019-03-23T15:39:28.435Z,18.70
2019-03-23T15:41:57.025Z,27.03
2019-03-23T15:44:25.586Z,30.93
2019-03-23T15:46:54.174Z,31.00
2019-03-23T15:49:22.743Z,34.87
2019-03-23T15:51:51.342Z,36.37
2019-03-23T15:54:19.892Z,36.87
2019-03-23T15:56:48.483Z,41.13
2019-03-23T15:59:17.046Z,39.40
2019-03-23T16:01:45.694Z,45.13
2019-03-23T16:04:14.270Z,45.67
2019-03-23T16:06:42.858Z,44.73
2019-03-23T16:09:11.424Z,44.67
2019-03-23T16:11:40.084Z,46.60
2019-03-23T16:14:08.649Z,54.17
2019-03-23T16:16:37.239Z,58.60
2019-03-23T16:19:05.801Z,57.23
2019-03-23T16:21:34.397Z,63.87
2019-03-23T16:24:02.965Z,65.93
2019-03-23T16:26:31.578Z,63.13
2019-03-23T16:29:00.139Z,56.57
2019-03-23T16:31:28.741Z,65.10
2019-03-23T16:33:57.313Z,60.60
2019-03-23T16:36:25.881Z,58.33
2019-03-23T16:38:54.485Z,60.43
2019-03-23T16:41:23.053Z,61.10
2019-03-23T16:43:51.654Z,64.07
2019-03-23T16:46:20.225Z,60.35
2019-03-23T16:48:48.827Z,60.52
2019-03-23T16:51:17.394Z,61.68
2019-03-23T16:53:45.984Z,57.73
2019-03-23T16:56:14.557Z,60.43
2019-03-23T16:58:43.188Z,60.08
2019-03-23T17:01:11.717Z,60.58
2019-03-23T17:03:40.304Z,60.33
2019-03-23T17:06:08.873Z,56.08
2019-03-23T17:08:37.463Z,55.58
2019-03-23T17:11:06.029Z,57.90
2019-03-23T17:13:34.622Z,53.52
2019-03-23T17:16:03.258Z,56.73
2019-03-23T17:18:31.848Z,58.15
2019-03-23T17:21:00.414Z,55.67
2019-03-23T17:23:29.007Z,55.20
2019-03-23T17:25:57.578Z,61.02
2019-03-23T17:28:26.167Z,57.15
2019-03-23T17:30:54.736Z,56.45
2019-03-23T17:33:23.365Z,57.38
2019-03-23T17:35:51.884Z,57.17
2019-03-23T17:38:20.475Z,50.55
2019-03-23T17:40:49.040Z,56.80
2019-03-23T17:43:17.630Z,56.92
2019-03-23T17:45:46.194Z,58.17
2019-03-23T17:48:14.786Z,61.92
2019-03-23T17:50:43.349Z,51.95
2019-03-23T17:53:11.937Z,46.85
2019-03-23T17:55:40.502Z,58.25
2019-03-23T17:58:09.089Z,58.70
2019-03-23T18:00:37.654Z,62.48
2019-03-23T18:03:06.237Z,58.75
2019-03-23T18:05:34.806Z,56.95
2019-03-23T18:08:03.441Z,60.00
2019-03-23T18:10:32.036Z,60.48
2019-03-23T18:13:00.607Z,55.35
2019-03-23T18:15:29.194Z,56.55
2019-03-23T18:17:57.757Z,59.95
2019-03-23T18:20:26.337Z,57.90
2019-03-23T18:22:54.896Z,56.70
2019-03-23T18:25:23.482Z,54.08
2019-03-23T18:27:52.052Z,55.00
2019-03-23T18:30:38.058Z,55.45
2019-03-23T18:33:07.260Z,55.40
2019-03-23T18:35:35.913Z,59.03
2019-03-23T18:38:04.709Z,52.83
2019-03-23T18:40:33.935Z,52.83
2019-03-23T18:43:02.570Z,52.13
2019-03-23T18:45:31.156Z,54.90
2019-03-23T18:47:59.723Z,59.15
2019-03-23T18:50:28.297Z,55.40
2019-03-23T18:52:56.867Z,53.87
2019-03-23T18:55:25.457Z,54.70
2019-03-23T18:57:54.013Z,53.42
2019-03-23T19:00:39.204Z,53.33
2019-03-23T19:03:07.878Z,54.63
2019-03-23T19:05:36.722Z,54.38
2019-03-23T19:08:05.826Z,51.25
2019-03-23T19:10:35.259Z,51.08
2019-03-23T19:13:03.957Z,51.20
2019-03-23T19:15:32.683Z,54.03
2019-03-23T19:18:01.256Z,52.93
2019-03-23T19:20:29.901Z,48.65
2019-03-23T19:22:58.463Z,53.70
2019-03-23T19:25:27.042Z,50.40
2019-03-23T19:27:55.607Z,48.87
2019-03-23T19:30:24.360Z,51.20
2019-03-23T19:32:52.923Z,46.75
2019-03-23T19:35:21.506Z,50.28
2019-03-23T19:37:50.065Z,49.85
2019-03-23T19:40:18.644Z,50.75
2019-03-23T19:42:47.213Z,49.25
2019-03-23T19:45:15.801Z,53.90
2019-03-23T19:47:44.362Z,53.78
2019-03-23T19:50:13.387Z,51.55
2019-03-23T19:52:41.941Z,54.45
2019-03-23T19:55:11.271Z,54.53
2019-03-23T19:57:39.829Z,56.63
2019-03-23T20:00:11.122Z,54.13
2019-03-23T20:02:39.685Z,53.13
2019-03-23T20:05:08.270Z,53.42
2019-03-23T20:07:36.830Z,54.25
2019-03-23T20:10:07.757Z,54.00
2019-03-23T20:12:36.322Z,51.90
2019-03-23T20:15:09.286Z,51.40
2019-03-23T20:17:37.846Z,53.40
2019-03-23T20:20:10.381Z,50.83
2019-03-23T20:22:39.015Z,58.42
2019-03-23T20:25:08.235Z,53.65
2019-03-23T20:27:36.878Z,51.83
2019-03-23T20:30:11.246Z,55.88
2019-03-23T20:32:39.806Z,53.35
2019-03-23T20:35:09.628Z,55.28
2019-03-23T20:37:38.191Z,53.63
2019-03-23T20:40:08.014Z,53.23
2019-03-23T20:42:36.577Z,53.05
2019-03-23T20:45:07.750Z,51.40
2019-03-23T20:47:37.098Z,51.25
2019-03-23T20:50:08.298Z,55.17
2019-03-23T20:52:37.021Z,55.45
2019-03-23T20:55:08.288Z,52.35
2019-03-23T20:57:37.754Z,51.48
2019-03-23T21:00:07.878Z,50.88
2019-03-23T21:02:36.467Z,53.05
2019-03-23T21:05:06.297Z,48.92
2019-03-23T21:07:34.883Z,49.90
2019-03-23T21:10:03.998Z,50.52
2019-03-23T21:12:32.569Z,48.50
2019-03-23T21:15:01.134Z,47.13
2019-03-23T21:17:29.717Z,48.70
2019-03-23T21:19:58.273Z,52.10
2019-03-23T21:22:26.861Z,46.50
2019-03-23T21:24:55.422Z,49.18
2019-03-23T21:27:24.009Z,49.00
2019-03-23T21:29:52.569Z,50.78
2019-03-23T21:32:21.154Z,49.88
2019-03-23T21:34:49.718Z,45.78
2019-03-23T21:37:18.304Z,47.15
2019-03-23T21:39:46.856Z,47.80
2019-03-23T21:42:15.441Z,48.23
2019-03-23T21:44:44.001Z,46.73
2019-03-23T21:47:12.586Z,52.95
2019-03-23T21:49:41.144Z,51.83
2019-03-23T21:52:09.725Z,54.90
2019-03-23T21:54:38.291Z,58.17
2019-03-23T21:57:06.873Z,56.25
2019-03-23T21:59:35.431Z,62.60
2019-03-23T22:02:04.015Z,58.68
2019-03-23T22:04:32.641Z,58.17
2019-03-23T22:07:01.227Z,57.98
2019-03-23T22:09:29.795Z,61.77
2019-03-23T22:11:58.374Z,62.20
2019-03-23T22:14:26.932Z,55.88
2019-03-23T22:16:55.514Z,53.55
2019-03-23T22:19:24.069Z,55.65
2019-03-23T22:21:52.645Z,55.80
2019-03-23T22:24:21.210Z,58.58
2019-03-23T22:26:49.794Z,57.67
2019-03-23T22:29:18.353Z,61.05
2019-03-23T22:31:46.912Z,58.65
2019-03-23T22:34:15.490Z,53.87
2019-03-23T22:36:44.049Z,56.50
2019-03-23T22:39:12.638Z,57.03
2019-03-23T22:41:41.202Z,54.90
2019-03-23T22:44:09.786Z,57.13
2019-03-23T22:46:38.352Z,53.30
2019-03-23T22:49:06.942Z,56.35
2019-03-23T22:51:35.507Z,57.08
2019-03-23T22:54:04.161Z,57.70
2019-03-23T22:56:32.720Z,57.60
2019-03-23T22:59:01.306Z,57.30
2019-03-23T23:01:29.864Z,56.40
2019-03-23T23:03:58.446Z,57.45
2019-03-23T23:06:27.000Z,55.73
2019-03-23T23:08:55.589Z,57.90
2019-03-23T23:11:24.148Z,51.98
2019-03-23T23:13:52.738Z,54.88
2019-03-23T23:16:21.301Z,52.55
2019-03-23T23:18:49.882Z,55.17
2019-03-23T23:21:18.440Z,54.63
2019-03-23T23:23:47.030Z,54.15
2019-03-23T23:26:15.589Z,44.15
2019-03-23T23:28:44.179Z,52.65
2019-03-23T23:31:12.737Z,51.58
2019-03-23T23:33:41.321Z,54.27
2019-03-23T23:36:09.880Z,51.33
2019-03-23T23:38:38.509Z,52.53
2019-03-23T23:41:07.021Z,49.75
2019-03-23T23:43:35.606Z,52.23
2019-03-23T23:46:04.170Z,49.45
2019-03-23T23:48:32.749Z,53.75
2019-03-23T23:51:01.310Z,52.27
2019-03-23T23:53:29.884Z,45.58
2019-03-23T23:55:58.445Z,55.35
2019-03-23T23:58:27.038Z,51.15
